Hlavní strana
METAR-TAF:

METAR-TAF

Letiště :

Meridian Regional Airport (Key Field)

Meridian, Mississippi, Spojené státy americké

zeměpisná šířka: 32-20-17N, zeměpisná délka: 088-44-52W, výška: 90 m

Aktuální stav počasí

Zpráva byla vytvořena před 40 minutami, v 16:58 UTC
Teplota 13°C
Vlhkost vzduchu 38%
Tlak 1024 hPa
Viditelnost: 16.1 km
Jasno

METAR: KMEI 151658Z 10SM CLR 13/M01 A3025 RMK AO2 SLP242 T01331011 $

Čas: 11:38 (17:38 UTC)

Předpověď počasí

Zpráva byla vytvořena před 18 minutami, v 17:20 UTC
Předpověď platná od 15 v 18 UTC do 16 v 18 UTC
Severní vítr 15 kt s nárazy do 21 kt
Viditelnost: 10 km
Jasno
Od 16 v 0000 UTC
Severní vítr 7 kt
Viditelnost: 10 km
Jasno

TAF: KMEI 151720Z 1518/1618 35015G21KT P6SM SKC FM160000 35007KT P6SM SKC

Stav a předpovědi počasí z více než 4 000 letišť (zprávy METAR a TAF).

Červené a žluté tečky na mapě představují dostupné meteorologické stanice.

Když kurzor umístíte na tečku, zobrazí se název stanice.

Pak kliknutím zobrazíte stav a předpověď počasí.

Chcete-li změnit mapu, kliknutím na zelené tlačítko se znaménkem +mapu přiblížíte, kliknutím na zelené tlačítko se znaménkem – mapu oddálíte a kliknutím na zelené šipky přejdete na sousední mapy.


METAR-TAF: